Terminal Aerodrome Forecast
Issued by NWS Albuquerque, NM

Home | Current Version | Previous Version | Text Only | Print | Product List | Glossary On
Versions: 1 2 3 4 5 6 7 8 9 10 11 12 13 14 15 16 17 18 19
000
FTUS45 KABQ 192336
TAFABQ
TAF
KABQ 192336Z 2000/2024 26010KT P6SM SCT040 BKN050 OVC090
     FM200600 22009KT P6SM SCT040 BKN070
     FM201200 20009KT 3SM -SHSN OVC025
     FM201600 24014G21KT P6SM OVC050
     FM201900 26020G31KT P6SM OVC100=

USA.gov is the U.S. government's official web portal to all federal, state and local government web resources and services.